Time,TemperatureF,DewpointF,PressureIn,WindDirection,WindDirectionDegrees,WindSpeedMPH,WindSpeedGustMPH,Humidity,HourlyPrecipIn,Conditions,Clouds,dailyrainin,SoftwareType,DateUTC
2013-06-19 00:01:00,76.3,70.1,29.77,ESE,113,0.0,1.1,81,0.00,,,0.00,WUHU216HW,2013-06-19 05:01:00,
2013-06-19 00:06:00,76.1,69.9,29.77,ESE,113,0.0,0.4,81,0.00,,,0.00,WUHU216HW,2013-06-19 05:06:00,
2013-06-19 00:11:00,76.0,69.8,29.77,ESE,113,0.4,0.4,81,0.00,,,0.00,WUHU216HW,2013-06-19 05:11:00,
2013-06-19 00:16:00,75.6,69.8,29.77,ESE,113,0.4,0.4,82,0.00,,,0.00,WUHU216HW,2013-06-19 05:16:00,
2013-06-19 00:21:00,75.6,69.8,29.77,ESE,113,0.4,1.1,82,0.00,,,0.00,WUHU216HW,2013-06-19 05:21:00,
2013-06-19 00:26:00,76.0,69.8,29.77,ESE,113,2.0,2.0,81,0.00,,,0.00,WUHU216HW,2013-06-19 05:26:00,
2013-06-19 00:31:00,76.1,69.6,29.77,ESE,113,0.7,2.0,80,0.00,,,0.00,WUHU216HW,2013-06-19 05:31:00,
2013-06-19 00:36:00,76.3,69.4,29.77,ESE,113,1.3,1.3,79,0.00,,,0.00,WUHU216HW,2013-06-19 05:36:00,
2013-06-19 00:41:00,76.3,68.9,29.77,East,90,1.1,2.7,78,0.00,,,0.00,WUHU216HW,2013-06-19 05:41:00,
2013-06-19 00:46:00,76.3,68.6,29.77,ESE,113,1.1,4.3,77,0.00,,,0.00,WUHU216HW,2013-06-19 05:46:00,
2013-06-19 00:51:00,76.5,68.4,29.76,ESE,113,1.6,4.3,76,0.00,,,0.00,WUHU216HW,2013-06-19 05:51:00,
2013-06-19 00:56:00,76.5,68.4,29.77,NE,45,2.7,2.7,76,0.00,,,0.00,WUHU216HW,2013-06-19 05:56:00,
2013-06-19 01:01:00,76.5,68.4,29.77,SE,135,1.6,2.7,76,0.00,,,0.00,WUHU216HW,2013-06-19 06:01:00,
2013-06-19 01:06:00,76.5,68.0,29.76,ESE,113,1.6,3.1,75,0.00,,,0.00,WUHU216HW,2013-06-19 06:06:00,
2013-06-19 01:11:00,76.5,68.0,29.76,SE,135,2.5,3.1,75,0.00,,,0.00,WUHU216HW,2013-06-19 06:11:00,
2013-06-19 01:16:00,76.5,68.0,29.76,SE,135,1.1,2.5,75,0.00,,,0.00,WUHU216HW,2013-06-19 06:16:00,
2013-06-19 01:21:00,76.3,67.8,29.76,SE,135,1.1,2.0,75,0.00,,,0.00,WUHU216HW,2013-06-19 06:21:00,
2013-06-19 01:26:00,76.3,67.8,29.76,SE,135,0.4,1.8,75,0.00,,,0.00,WUHU216HW,2013-06-19 06:26:00,
2013-06-19 01:31:00,76.0,67.5,29.76,SE,135,0.0,0.9,75,0.00,,,0.00,WUHU216HW,2013-06-19 06:31:00,
2013-06-19 01:36:00,75.4,67.3,29.76,SE,135,0.4,0.4,76,0.00,,,0.00,WUHU216HW,2013-06-19 06:36:00,
2013-06-19 01:41:00,75.1,67.0,29.76,SE,135,0.4,0.4,76,0.00,,,0.00,WUHU216HW,2013-06-19 06:41:00,
2013-06-19 01:46:00,74.7,67.1,29.76,SE,135,0.0,0.4,77,0.00,,,0.00,WUHU216HW,2013-06-19 06:46:00,
2013-06-19 01:51:00,74.5,67.2,29.76,SE,135,0.4,1.8,78,0.00,,,0.00,WUHU216HW,2013-06-19 06:51:00,
2013-06-19 01:56:00,74.3,67.1,29.76,SE,135,0.0,1.8,78,0.00,,,0.00,WUHU216HW,2013-06-19 06:56:00,
2013-06-19 02:01:00,74.0,67.2,29.76,SE,135,0.0,1.1,79,0.00,,,0.00,WUHU216HW,2013-06-19 07:01:00,
2013-06-19 02:06:00,73.6,67.1,29.76,East,90,0.9,0.9,80,0.00,,,0.00,WUHU216HW,2013-06-19 07:06:00,
2013-06-19 02:11:00,73.4,67.0,29.76,ESE,113,0.0,0.9,80,0.00,,,0.00,WUHU216HW,2013-06-19 07:11:00,
2013-06-19 02:16:00,73.3,66.8,29.76,ESE,113,0.0,0.4,80,0.00,,,0.00,WUHU216HW,2013-06-19 07:16:00,
2013-06-19 02:21:00,73.1,67.0,29.76,ESE,113,0.0,0.0,81,0.00,,,0.00,WUHU216HW,2013-06-19 07:21:00,
2013-06-19 02:26:00,72.7,66.6,29.76,ESE,113,0.0,0.0,81,0.00,,,0.00,WUHU216HW,2013-06-19 07:26:00,
2013-06-19 02:31:00,72.5,66.1,29.76,ESE,113,0.0,0.0,80,0.00,,,0.00,WUHU216HW,2013-06-19 07:31:00,
2013-06-19 02:36:00,72.4,66.3,29.75,ESE,113,0.0,0.0,81,0.00,,,0.00,WUHU216HW,2013-06-19 07:36:00,
2013-06-19 02:41:00,72.2,66.1,29.75,ESE,113,0.0,0.0,81,0.00,,,0.00,WUHU216HW,2013-06-19 07:41:00,
2013-06-19 02:46:00,72.0,65.9,29.75,ESE,113,0.0,0.0,81,0.00,,,0.00,WUHU216HW,2013-06-19 07:46:00,
2013-06-19 02:51:00,71.8,66.1,29.75,ESE,113,0.0,0.0,82,0.00,,,0.00,WUHU216HW,2013-06-19 07:51:00,
2013-06-19 02:56:00,71.6,65.9,29.75,ESE,113,0.0,0.0,82,0.00,,,0.00,WUHU216HW,2013-06-19 07:56:00,
2013-06-19 03:01:00,71.6,65.9,29.75,ESE,113,0.0,0.0,82,0.00,,,0.00,WUHU216HW,2013-06-19 08:01:00,
2013-06-19 03:06:00,71.5,65.7,29.75,ESE,113,0.0,0.0,82,0.00,,,0.00,WUHU216HW,2013-06-19 08:06:00,
2013-06-19 03:11:00,71.3,65.8,29.75,ESE,113,0.0,0.0,83,0.00,,,0.00,WUHU216HW,2013-06-19 08:11:00,
2013-06-19 03:16:00,71.1,65.6,29.75,ESE,113,0.0,0.0,83,0.00,,,0.00,WUHU216HW,2013-06-19 08:16:00,
2013-06-19 03:21:00,70.9,65.4,29.75,ESE,113,0.0,0.0,83,0.00,,,0.00,WUHU216HW,2013-06-19 08:21:00,
2013-06-19 03:26:00,70.9,65.8,29.75,ESE,113,0.0,0.0,84,0.00,,,0.00,WUHU216HW,2013-06-19 08:26:00,
2013-06-19 03:31:00,70.7,65.6,29.75,ESE,113,0.0,0.2,84,0.00,,,0.00,WUHU216HW,2013-06-19 08:31:00,
2013-06-19 03:36:00,70.6,65.4,29.75,ESE,113,0.0,0.2,84,0.00,,,0.00,WUHU216HW,2013-06-19 08:36:00,
2013-06-19 03:41:00,70.6,65.4,29.75,ESE,113,0.0,0.0,84,0.00,,,0.00,WUHU216HW,2013-06-19 08:41:00,
2013-06-19 03:46:00,70.6,65.4,29.75,ESE,113,0.0,0.0,84,0.00,,,0.00,WUHU216HW,2013-06-19 08:46:00,
2013-06-19 03:51:00,70.6,65.4,29.75,ESE,113,0.0,0.0,84,0.00,,,0.00,WUHU216HW,2013-06-19 08:51:00,
2013-06-19 03:56:00,70.6,65.8,29.75,ESE,113,0.0,0.0,85,0.00,,,0.00,WUHU216HW,2013-06-19 08:56:00,
2013-06-19 04:01:00,71.1,66.7,29.75,SSE,158,0.4,1.8,86,0.00,,,0.00,WUHU216HW,2013-06-19 09:01:00,
2013-06-19 04:06:00,71.6,67.2,29.75,SSE,158,1.3,1.8,86,0.00,,,0.00,WUHU216HW,2013-06-19 09:06:00,
2013-06-19 04:11:00,72.0,67.6,29.75,SE,135,1.8,1.8,86,0.00,,,0.00,WUHU216HW,2013-06-19 09:11:00,
2013-06-19 04:16:00,72.2,67.8,29.75,SE,135,0.0,1.8,86,0.00,,,0.00,WUHU216HW,2013-06-19 09:16:00,
2013-06-19 04:21:00,72.0,67.6,29.76,SE,135,0.4,1.1,86,0.00,,,0.00,WUHU216HW,2013-06-19 09:21:00,
2013-06-19 04:26:00,71.6,66.9,29.75,SE,135,0.0,0.4,85,0.00,,,0.00,WUHU216HW,2013-06-19 09:26:00,
2013-06-19 04:31:00,71.5,66.7,29.75,SE,135,0.0,0.0,85,0.00,,,0.00,WUHU216HW,2013-06-19 09:31:00,
2013-06-19 04:36:00,71.3,66.9,29.75,SE,135,0.0,0.9,86,0.00,,,0.00,WUHU216HW,2013-06-19 09:36:00,
2013-06-19 04:41:00,71.3,66.9,29.75,SE,135,0.0,0.9,86,0.00,,,0.00,WUHU216HW,2013-06-19 09:41:00,
2013-06-19 04:47:00,71.5,67.4,29.75,SE,135,1.1,1.1,87,0.00,,,0.00,WUHU216HW,2013-06-19 09:47:00,
2013-06-19 04:52:00,71.6,67.6,29.75,SE,135,0.0,1.1,87,0.00,,,0.00,WUHU216HW,2013-06-19 09:52:00,
2013-06-19 04:57:00,71.8,68.0,29.75,SE,135,0.9,1.1,88,0.00,,,0.00,WUHU216HW,2013-06-19 09:57:00,
2013-06-19 05:02:00,72.0,68.2,29.76,SE,135,0.7,1.1,88,0.00,,,0.00,WUHU216HW,2013-06-19 10:02:00,
2013-06-19 05:07:00,72.0,68.2,29.76,SE,135,1.1,1.1,88,0.00,,,0.00,WUHU216HW,2013-06-19 10:07:00,
2013-06-19 05:12:00,72.2,68.4,29.76,SE,135,1.1,1.1,88,0.00,,,0.00,WUHU216HW,2013-06-19 10:12:00,
2013-06-19 05:17:00,72.2,68.4,29.76,SE,135,0.0,1.1,88,0.00,,,0.00,WUHU216HW,2013-06-19 10:17:00,
2013-06-19 05:22:00,72.4,68.6,29.76,SE,135,0.9,1.1,88,0.00,,,0.00,WUHU216HW,2013-06-19 10:22:00,
2013-06-19 05:27:00,72.4,68.6,29.76,SE,135,0.0,1.1,88,0.00,,,0.00,WUHU216HW,2013-06-19 10:27:00,
2013-06-19 05:32:00,72.4,68.6,29.76,SE,135,0.0,0.7,88,0.00,,,0.00,WUHU216HW,2013-06-19 10:32:00,
2013-06-19 05:37:00,72.0,68.2,29.76,SE,135,0.0,0.0,88,0.00,,,0.00,WUHU216HW,2013-06-19 10:37:00,
2013-06-19 05:42:00,71.6,67.9,29.76,SE,135,0.0,0.0,88,0.00,,,0.00,WUHU216HW,2013-06-19 10:42:00,
2013-06-19 05:47:00,71.3,67.5,29.76,SE,135,0.0,0.0,88,0.00,,,0.00,WUHU216HW,2013-06-19 10:47:00,
2013-06-19 05:52:00,70.9,67.1,29.77,SE,135,0.0,0.0,88,0.00,,,0.00,WUHU216HW,2013-06-19 10:52:00,
2013-06-19 05:57:00,70.7,67.0,29.76,SE,135,0.0,0.0,88,0.00,,,0.00,WUHU216HW,2013-06-19 10:57:00,
2013-06-19 06:02:00,70.4,66.6,29.76,SE,135,0.0,0.0,88,0.00,,,0.00,WUHU216HW,2013-06-19 11:02:00,
2013-06-19 06:07:00,70.2,66.4,29.76,SE,135,0.0,0.0,88,0.00,,,0.00,WUHU216HW,2013-06-19 11:07:00,
2013-06-19 06:12:00,70.0,66.2,29.76,SE,135,0.0,0.0,88,0.00,,,0.00,WUHU216HW,2013-06-19 11:12:00,
2013-06-19 06:17:00,70.0,66.2,29.77,SE,135,0.0,0.0,88,0.00,,,0.00,WUHU216HW,2013-06-19 11:17:00,
2013-06-19 06:22:00,69.8,66.1,29.77,SE,135,0.0,0.0,88,0.00,,,0.00,WUHU216HW,2013-06-19 11:22:00,
2013-06-19 06:27:00,69.7,65.9,29.77,SE,135,0.0,0.0,88,0.00,,,0.00,WUHU216HW,2013-06-19 11:27:00,
2013-06-19 06:32:00,69.7,65.9,29.78,SE,135,0.0,0.0,88,0.00,,,0.00,WUHU216HW,2013-06-19 11:32:00,
2013-06-19 06:37:00,70.2,66.8,29.78,SE,135,0.0,0.0,89,0.00,,,0.00,WUHU216HW,2013-06-19 11:37:00,
2013-06-19 06:42:00,70.2,66.4,29.78,SE,135,0.0,0.0,88,0.00,,,0.00,WUHU216HW,2013-06-19 11:42:00,
2013-06-19 06:47:00,70.4,67.0,29.78,SE,135,0.0,0.0,89,0.00,,,0.00,WUHU216HW,2013-06-19 11:47:00,
2013-06-19 06:52:00,70.2,66.8,29.78,SE,135,0.0,0.0,89,0.00,,,0.00,WUHU216HW,2013-06-19 11:52:00,
2013-06-19 06:57:00,70.2,66.8,29.78,SE,135,0.0,0.0,89,0.00,,,0.00,WUHU216HW,2013-06-19 11:57:00,
2013-06-19 07:02:00,70.6,67.1,29.79,SE,135,0.0,0.0,89,0.00,,,0.00,WUHU216HW,2013-06-19 12:02:00,
2013-06-19 07:07:00,70.9,67.5,29.79,SE,135,0.0,0.0,89,0.00,,,0.00,WUHU216HW,2013-06-19 12:07:00,
2013-06-19 07:12:00,71.6,68.2,29.79,SE,135,0.0,0.0,89,0.00,,,0.00,WUHU216HW,2013-06-19 12:12:00,
2013-06-19 07:17:00,72.7,69.7,29.79,SE,135,0.0,0.0,90,0.00,,,0.00,WUHU216HW,2013-06-19 12:17:00,
2013-06-19 07:22:00,74.3,71.3,29.79,SE,135,0.2,1.1,90,0.00,,,0.00,WUHU216HW,2013-06-19 12:22:00,
2013-06-19 07:27:00,75.6,72.2,29.79,SE,135,0.0,1.1,89,0.00,,,0.00,WUHU216HW,2013-06-19 12:27:00,
2013-06-19 07:32:00,77.2,72.7,29.79,SE,135,0.0,1.1,86,0.00,,,0.00,WUHU216HW,2013-06-19 12:32:00,
2013-06-19 07:37:00,79.0,74.2,29.79,SE,135,0.0,1.1,85,0.00,,,0.00,WUHU216HW,2013-06-19 12:37:00,
2013-06-19 07:42:00,81.0,75.1,29.79,SE,135,0.2,1.1,82,0.00,,,0.00,WUHU216HW,2013-06-19 12:42:00,
2013-06-19 07:47:00,82.8,75.7,29.79,SE,135,0.7,1.1,79,0.00,,,0.00,WUHU216HW,2013-06-19 12:47:00,
2013-06-19 07:52:00,85.0,76.5,29.79,SE,135,0.7,1.1,76,0.00,,,0.00,WUHU216HW,2013-06-19 12:52:00,
2013-06-19 07:57:00,86.6,77.8,29.79,SSW,203,1.1,1.3,75,0.00,,,0.00,WUHU216HW,2013-06-19 12:57:00,
2013-06-19 08:02:00,87.3,75.0,29.79,SSE,158,1.6,6.3,67,0.00,,,0.00,WUHU216HW,2013-06-19 13:02:00,
2013-06-19 08:07:00,86.0,74.8,29.79,South,180,3.6,6.3,69,0.00,,,0.00,WUHU216HW,2013-06-19 13:07:00,
2013-06-19 08:12:00,85.3,74.1,29.79,SSW,203,5.6,5.6,69,0.00,,,0.00,WUHU216HW,2013-06-19 13:12:00,
2013-06-19 08:17:00,84.8,73.1,29.79,South,180,5.4,5.6,68,0.00,,,0.00,WUHU216HW,2013-06-19 13:17:00,
2013-06-19 08:22:00,84.6,73.4,29.79,SE,135,5.8,5.8,69,0.00,,,0.00,WUHU216HW,2013-06-19 13:22:00,
2013-06-19 08:27:00,84.8,73.1,29.79,South,180,1.8,6.5,68,0.00,,,0.00,WUHU216HW,2013-06-19 13:27:00,
2013-06-19 08:32:00,86.0,73.8,29.79,SW,225,2.5,6.5,67,0.00,,,0.00,WUHU216HW,2013-06-19 13:32:00,
2013-06-19 08:37:00,87.1,74.3,29.78,SE,135,3.1,4.0,66,0.00,,,0.00,WUHU216HW,2013-06-19 13:37:00,
2013-06-19 08:42:00,87.5,73.8,29.79,SW,225,2.9,4.9,64,0.00,,,0.00,WUHU216HW,2013-06-19 13:42:00,
2013-06-19 08:47:00,87.5,73.8,29.79,SSW,203,2.7,4.9,64,0.00,,,0.00,WUHU216HW,2013-06-19 13:47:00,
2013-06-19 08:52:00,88.0,73.0,29.79,SSW,203,3.6,4.7,61,0.00,,,0.00,WUHU216HW,2013-06-19 13:52:00,
2013-06-19 08:57:00,88.9,73.4,29.79,SW,225,5.1,5.4,60,0.00,,,0.00,WUHU216HW,2013-06-19 13:57:00,
2013-06-19 09:02:00,89.6,73.4,29.79,SW,225,3.6,8.3,59,0.00,,,0.00,WUHU216HW,2013-06-19 14:02:00,
2013-06-19 09:07:00,90.7,73.4,29.79,SSW,203,1.8,8.3,57,0.00,,,0.00,WUHU216HW,2013-06-19 14:07:00,
2013-06-19 09:12:00,90.4,73.0,29.79,SW,225,3.8,6.3,57,0.00,,,0.00,WUHU216HW,2013-06-19 14:12:00,
2013-06-19 09:17:00,90.5,73.7,29.79,SSW,203,4.0,6.5,58,0.00,,,0.00,WUHU216HW,2013-06-19 14:17:00,
2013-06-19 09:22:00,92.5,73.9,29.79,SE,135,4.0,6.5,55,0.00,,,0.00,WUHU216HW,2013-06-19 14:22:00,
2013-06-19 09:27:00,93.4,73.7,29.79,WSW,248,2.5,6.5,53,0.00,,,0.00,WUHU216HW,2013-06-19 14:27:00,
2013-06-19 09:32:00,94.3,74.5,29.79,South,180,3.8,6.0,53,0.00,,,0.00,WUHU216HW,2013-06-19 14:32:00,
2013-06-19 09:37:00,94.1,73.8,29.79,WSW,248,7.6,7.6,52,0.00,,,0.00,WUHU216HW,2013-06-19 14:37:00,
2013-06-19 09:42:00,94.1,73.3,29.79,SSW,203,2.9,7.6,51,0.00,,,0.00,WUHU216HW,2013-06-19 14:42:00,
2013-06-19 09:47:00,94.7,73.3,29.79,South,180,3.8,8.5,50,0.00,,,0.00,WUHU216HW,2013-06-19 14:47:00,
2013-06-19 09:52:00,94.7,74.3,29.79,WSW,248,7.4,8.5,52,0.00,,,0.00,WUHU216HW,2013-06-19 14:52:00,
2013-06-19 09:57:00,95.0,73.0,29.79,SW,225,4.0,7.4,49,0.00,,,0.00,WUHU216HW,2013-06-19 14:57:00,
2013-06-19 10:02:00,95.2,73.8,29.79,South,180,4.7,6.3,50,0.00,,,0.00,WUHU216HW,2013-06-19 15:02:00,
2013-06-19 10:07:00,95.6,73.4,29.79,WSW,248,1.8,4.9,49,0.00,,,0.00,WUHU216HW,2013-06-19 15:07:00,
2013-06-19 10:12:00,96.5,73.6,29.79,SW,225,5.6,6.7,48,0.00,,,0.00,WUHU216HW,2013-06-19 15:12:00,
2013-06-19 10:17:00,97.2,73.5,29.79,SW,225,7.4,7.4,47,0.00,,,0.00,WUHU216HW,2013-06-19 15:17:00,
2013-06-19 10:22:00,97.6,73.9,29.79,WSW,248,4.5,7.4,47,0.00,,,0.00,WUHU216HW,2013-06-19 15:22:00,
2013-06-19 10:27:00,98.3,73.2,29.80,ESE,113,3.8,6.3,45,0.00,,,0.00,WUHU216HW,2013-06-19 15:27:00,
2013-06-19 10:32:00,98.3,73.9,29.79,SW,225,4.7,5.4,46,0.00,,,0.00,WUHU216HW,2013-06-19 15:32:00,
2013-06-19 10:37:00,98.6,74.2,29.79,SSW,203,2.5,5.1,46,0.00,,,0.00,WUHU216HW,2013-06-19 15:37:00,
2013-06-19 10:42:00,99.4,72.8,29.79,SSE,158,7.2,7.2,43,0.00,,,0.00,WUHU216HW,2013-06-19 15:42:00,
2013-06-19 10:47:00,96.8,71.9,29.79,SSE,158,5.4,10.7,45,0.00,,,0.00,WUHU216HW,2013-06-19 15:47:00,
2013-06-19 10:52:00,96.8,71.9,29.80,WSW,248,2.9,10.7,45,0.00,,,0.00,WUHU216HW,2013-06-19 15:52:00,
2013-06-19 10:57:00,97.2,72.9,29.80,SE,135,3.4,4.3,46,0.00,,,0.00,WUHU216HW,2013-06-19 15:57:00,
2013-06-19 11:02:00,97.2,72.3,29.80,South,180,6.3,6.3,45,0.00,,,0.00,WUHU216HW,2013-06-19 16:02:00,
2013-06-19 11:07:00,97.0,72.1,29.80,SSE,158,3.4,6.3,45,0.00,,,0.00,WUHU216HW,2013-06-19 16:07:00,
2013-06-19 11:12:00,97.6,73.3,29.80,SW,225,3.6,6.9,46,0.00,,,0.00,WUHU216HW,2013-06-19 16:12:00,
2013-06-19 11:17:00,98.6,73.5,29.80,South,180,3.6,6.9,45,0.00,,,0.00,WUHU216HW,2013-06-19 16:17:00,
2013-06-19 11:22:00,97.9,70.9,29.80,SE,135,3.4,6.0,42,0.00,,,0.00,WUHU216HW,2013-06-19 16:22:00,
2013-06-19 11:27:00,97.2,70.9,29.80,South,180,4.0,5.4,43,0.00,,,0.00,WUHU216HW,2013-06-19 16:27:00,
2013-06-19 11:32:00,97.7,72.7,29.80,SW,225,4.3,6.7,45,0.00,,,0.00,WUHU216HW,2013-06-19 16:32:00,
2013-06-19 11:37:00,98.8,71.7,29.80,South,180,4.0,6.7,42,0.00,,,0.00,WUHU216HW,2013-06-19 16:37:00,
2013-06-19 11:42:00,97.7,71.4,29.80,WSW,248,3.8,4.7,43,0.00,,,0.00,WUHU216HW,2013-06-19 16:42:00,
2013-06-19 11:47:00,99.2,72.7,29.80,SW,225,4.9,4.9,43,0.00,,,0.00,WUHU216HW,2013-06-19 16:47:00,
2013-06-19 11:52:00,99.7,71.8,29.80,West,270,4.7,6.9,41,0.00,,,0.00,WUHU216HW,2013-06-19 16:52:00,
2013-06-19 11:57:00,99.5,71.0,29.80,SE,135,3.4,6.9,40,0.00,,,0.00,WUHU216HW,2013-06-19 16:57:00,
2013-06-19 12:02:00,98.3,70.6,29.80,South,180,4.7,6.3,41,0.00,,,0.00,WUHU216HW,2013-06-19 17:02:00,
2013-06-19 12:07:00,98.8,71.7,29.80,South,180,4.0,6.3,42,0.00,,,0.00,WUHU216HW,2013-06-19 17:07:00,
2013-06-19 12:12:00,99.0,71.2,29.80,South,180,2.0,7.4,41,0.00,,,0.00,WUHU216HW,2013-06-19 17:12:00,
2013-06-19 12:17:00,98.8,70.4,29.80,WSW,248,3.8,7.4,40,0.00,,,0.00,WUHU216HW,2013-06-19 17:17:00,
2013-06-19 12:22:00,98.3,70.6,29.79,South,180,8.1,8.1,41,0.00,,,0.00,WUHU216HW,2013-06-19 17:22:00,
2013-06-19 12:27:00,97.9,69.6,29.80,SSW,203,4.9,8.1,40,0.00,,,0.00,WUHU216HW,2013-06-19 17:27:00,
2013-06-19 12:32:00,97.4,69.8,29.79,SW,225,4.0,5.6,41,0.00,,,0.00,WUHU216HW,2013-06-19 17:32:00,
2013-06-19 12:37:00,97.6,69.9,29.79,SSW,203,4.3,5.8,41,0.00,,,0.00,WUHU216HW,2013-06-19 17:37:00,
2013-06-19 12:42:00,97.4,68.2,29.79,ESE,113,4.0,7.2,39,0.00,,,0.00,WUHU216HW,2013-06-19 17:42:00,
2013-06-19 12:47:00,96.1,69.3,29.79,SW,225,2.2,8.9,42,0.00,,,0.00,WUHU216HW,2013-06-19 17:47:00,
2013-06-19 12:52:00,97.4,71.1,29.79,SW,225,3.1,8.9,43,0.00,,,0.00,WUHU216HW,2013-06-19 17:52:00,
2013-06-19 12:57:00,97.7,70.0,29.79,SSE,158,4.3,6.7,41,0.00,,,0.00,WUHU216HW,2013-06-19 17:57:00,
2013-06-19 13:02:00,96.8,69.2,29.79,SSE,158,5.4,6.7,41,0.00,,,0.00,WUHU216HW,2013-06-19 18:02:00,
2013-06-19 13:07:00,95.6,68.8,29.79,South,180,4.7,7.2,42,0.00,,,0.00,WUHU216HW,2013-06-19 18:07:00,
2013-06-19 13:12:00,95.4,70.7,29.78,South,180,3.4,7.2,45,0.00,,,0.00,WUHU216HW,2013-06-19 18:12:00,
2013-06-19 13:17:00,95.8,69.6,29.78,SSE,158,2.9,5.8,43,0.00,,,0.00,WUHU216HW,2013-06-19 18:17:00,
2013-06-19 13:22:00,96.1,69.9,29.78,SW,225,4.9,5.6,43,0.00,,,0.00,WUHU216HW,2013-06-19 18:22:00,
2013-06-19 13:27:00,95.6,69.5,29.78,SSW,203,6.3,6.3,43,0.00,,,0.00,WUHU216HW,2013-06-19 18:27:00,
2013-06-19 13:32:00,95.9,69.1,29.78,SSE,158,4.9,6.3,42,0.00,,,0.00,WUHU216HW,2013-06-19 18:32:00,
2013-06-19 13:37:00,95.6,68.8,29.78,ENE,68,4.5,5.6,42,0.00,,,0.00,WUHU216HW,2013-06-19 18:37:00,
2013-06-19 13:42:00,95.4,69.3,29.78,SE,135,2.9,7.8,43,0.00,,,0.00,WUHU216HW,2013-06-19 18:42:00,
2013-06-19 13:47:00,95.4,69.3,29.78,SSE,158,4.0,7.8,43,0.00,,,0.00,WUHU216HW,2013-06-19 18:47:00,
2013-06-19 13:52:00,95.8,69.6,29.78,SE,135,2.7,4.9,43,0.00,,,0.00,WUHU216HW,2013-06-19 18:52:00,
2013-06-19 13:57:00,95.8,68.9,29.78,SSE,158,4.0,6.5,42,0.00,,,0.00,WUHU216HW,2013-06-19 18:57:00,
2013-06-19 14:02:00,96.1,69.9,29.78,SSE,158,3.4,6.5,43,0.00,,,0.00,WUHU216HW,2013-06-19 19:02:00,
2013-06-19 14:07:00,96.5,69.0,29.78,South,180,4.5,4.5,41,0.00,,,0.00,WUHU216HW,2013-06-19 19:07:00,
2013-06-19 14:12:00,96.5,69.6,29.78,ENE,68,4.0,4.7,42,0.00,,,0.00,WUHU216HW,2013-06-19 19:12:00,
2013-06-19 14:17:00,96.1,69.9,29.78,SSE,158,3.4,4.7,43,0.00,,,0.00,WUHU216HW,2013-06-19 19:17:00,
2013-06-19 14:22:00,96.5,70.3,29.78,South,180,2.7,3.6,43,0.00,,,0.00,WUHU216HW,2013-06-19 19:22:00,
2013-06-19 14:27:00,96.5,69.6,29.77,South,180,3.1,7.8,42,0.00,,,0.00,WUHU216HW,2013-06-19 19:27:00,
2013-06-19 14:32:00,96.3,69.4,29.77,SE,135,3.8,7.8,42,0.00,,,0.00,WUHU216HW,2013-06-19 19:32:00,
2013-06-19 14:37:00,95.8,69.6,29.77,ESE,113,4.7,4.7,43,0.00,,,0.00,WUHU216HW,2013-06-19 19:37:00,
2013-06-19 14:42:00,95.0,69.7,29.77,South,180,3.1,6.9,44,0.00,,,0.00,WUHU216HW,2013-06-19 19:42:00,
2013-06-19 14:47:00,94.5,69.1,29.77,South,180,7.6,8.5,44,0.00,,,0.00,WUHU216HW,2013-06-19 19:47:00,
2013-06-19 14:52:00,93.8,69.1,29.76,South,180,3.1,8.5,45,0.00,,,0.00,WUHU216HW,2013-06-19 19:52:00,
2013-06-19 14:57:00,94.0,69.9,29.76,SSE,158,2.5,6.9,46,0.00,,,0.00,WUHU216HW,2013-06-19 19:57:00,
2013-06-19 15:02:00,94.0,69.3,29.76,SSE,158,4.9,5.4,45,0.00,,,0.00,WUHU216HW,2013-06-19 20:02:00,
2013-06-19 15:07:00,94.1,70.1,29.76,ENE,68,5.6,7.2,46,0.00,,,0.00,WUHU216HW,2013-06-19 20:07:00,
2013-06-19 15:12:00,94.1,69.5,29.76,South,180,5.4,7.2,45,0.00,,,0.00,WUHU216HW,2013-06-19 20:12:00,
2013-06-19 15:17:00,94.0,69.9,29.76,NNE,23,4.0,5.4,46,0.00,,,0.00,WUHU216HW,2013-06-19 20:17:00,
2013-06-19 15:22:00,93.6,69.0,29.76,SSW,203,4.7,6.7,45,0.00,,,0.00,WUHU216HW,2013-06-19 20:22:00,
2013-06-19 15:27:00,93.2,68.6,29.75,SE,135,2.0,6.7,45,0.00,,,0.00,WUHU216HW,2013-06-19 20:27:00,
2013-06-19 15:32:00,93.2,69.2,29.75,South,180,4.0,5.4,46,0.00,,,0.00,WUHU216HW,2013-06-19 20:32:00,
2013-06-19 15:37:00,93.4,68.8,29.75,SSE,158,4.3,9.2,45,0.00,,,0.00,WUHU216HW,2013-06-19 20:37:00,
2013-06-19 15:42:00,93.1,67.8,29.75,SSE,158,2.5,9.2,44,0.00,,,0.00,WUHU216HW,2013-06-19 20:42:00,
2013-06-19 15:47:00,93.1,69.0,29.75,South,180,5.4,7.8,46,0.00,,,0.00,WUHU216HW,2013-06-19 20:47:00,
2013-06-19 15:52:00,93.4,68.1,29.75,SSE,158,4.0,6.7,44,0.00,,,0.00,WUHU216HW,2013-06-19 20:52:00,
2013-06-19 15:57:00,93.2,67.3,29.75,SE,135,5.1,6.7,43,0.00,,,0.00,WUHU216HW,2013-06-19 20:57:00,
2013-06-19 16:02:00,93.4,68.8,29.75,South,180,8.3,8.3,45,0.00,,,0.00,WUHU216HW,2013-06-19 21:02:00,
2013-06-19 16:07:00,93.6,68.3,29.75,SE,135,3.4,8.3,44,0.00,,,0.00,WUHU216HW,2013-06-19 21:07:00,
2013-06-19 16:12:00,93.8,69.1,29.75,South,180,4.5,6.0,45,0.00,,,0.00,WUHU216HW,2013-06-19 21:12:00,
2013-06-19 16:17:00,94.0,69.3,29.74,SSW,203,4.3,6.0,45,0.00,,,0.00,WUHU216HW,2013-06-19 21:17:00,
2013-06-19 16:22:00,94.0,68.0,29.74,SSE,158,6.0,8.5,43,0.00,,,0.00,WUHU216HW,2013-06-19 21:22:00,
2013-06-19 16:27:00,93.8,68.4,29.74,SE,135,2.5,8.5,44,0.00,,,0.00,WUHU216HW,2013-06-19 21:27:00,
2013-06-19 16:32:00,93.8,68.4,29.74,SW,225,6.0,7.4,44,0.00,,,0.00,WUHU216HW,2013-06-19 21:32:00,
2013-06-19 16:37:00,93.6,67.6,29.74,ESE,113,6.7,7.4,43,0.00,,,0.00,WUHU216HW,2013-06-19 21:37:00,
2013-06-19 16:42:00,93.4,68.1,29.75,SSE,158,4.0,7.2,44,0.00,,,0.00,WUHU216HW,2013-06-19 21:42:00,
2013-06-19 16:47:00,93.2,68.0,29.74,ESE,113,4.7,5.4,44,0.00,,,0.00,WUHU216HW,2013-06-19 21:47:00,
2013-06-19 16:52:00,93.2,68.6,29.75,ESE,113,2.0,5.4,45,0.00,,,0.00,WUHU216HW,2013-06-19 21:52:00,
2013-06-19 16:57:00,93.6,68.3,29.75,SE,135,7.4,7.4,44,0.00,,,0.00,WUHU216HW,2013-06-19 21:57:00,
2013-06-19 17:02:00,93.6,68.3,29.75,SE,135,2.7,7.4,44,0.00,,,0.00,WUHU216HW,2013-06-19 22:02:00,
2013-06-19 17:07:00,93.6,68.3,29.75,ENE,68,5.1,6.5,44,0.00,,,0.00,WUHU216HW,2013-06-19 22:07:00,
2013-06-19 17:12:00,93.2,67.3,29.74,ESE,113,2.5,6.9,43,0.00,,,0.00,WUHU216HW,2013-06-19 22:12:00,
2013-06-19 17:17:00,93.1,67.2,29.74,SE,135,3.4,6.9,43,0.00,,,0.00,WUHU216HW,2013-06-19 22:17:00,
2013-06-19 17:22:00,92.9,67.0,29.74,SE,135,3.8,5.4,43,0.00,,,0.00,WUHU216HW,2013-06-19 22:22:00,
2013-06-19 17:27:00,92.9,68.2,29.74,SSE,158,6.9,6.9,45,0.00,,,0.00,WUHU216HW,2013-06-19 22:27:00,
2013-06-19 17:32:00,92.9,68.2,29.74,SE,135,4.7,6.9,45,0.00,,,0.00,WUHU216HW,2013-06-19 22:32:00,
2013-06-19 17:37:00,92.7,67.4,29.74,SE,135,2.5,6.3,44,0.00,,,0.00,WUHU216HW,2013-06-19 22:37:00,
2013-06-19 17:42:00,92.9,67.6,29.74,SE,135,6.3,6.3,44,0.00,,,0.00,WUHU216HW,2013-06-19 22:42:00,
2013-06-19 17:47:00,92.9,67.0,29.75,South,180,3.8,6.3,43,0.00,,,0.00,WUHU216HW,2013-06-19 22:47:00,
2013-06-19 17:52:00,92.7,66.8,29.74,SSE,158,1.8,4.7,43,0.00,,,0.00,WUHU216HW,2013-06-19 22:52:00,
2013-06-19 17:57:00,92.7,67.4,29.74,SE,135,2.7,4.7,44,0.00,,,0.00,WUHU216HW,2013-06-19 22:57:00,
2013-06-19 18:02:00,92.7,68.1,29.74,SSW,203,3.4,4.7,45,0.00,,,0.00,WUHU216HW,2013-06-19 23:02:00,
2013-06-19 18:07:00,92.7,68.1,29.73,SE,135,1.3,4.7,45,0.00,,,0.00,WUHU216HW,2013-06-19 23:07:00,
2013-06-19 18:12:00,92.7,68.1,29.73,South,180,4.9,4.9,45,0.00,,,0.00,WUHU216HW,2013-06-19 23:12:00,
2013-06-19 18:17:00,92.5,68.0,29.73,ESE,113,3.4,4.9,45,0.00,,,0.00,WUHU216HW,2013-06-19 23:17:00,
2013-06-19 18:22:00,92.3,67.8,29.73,SE,135,4.7,4.7,45,0.00,,,0.00,WUHU216HW,2013-06-19 23:22:00,
2013-06-19 18:27:00,92.2,67.0,29.73,SSW,203,2.2,6.9,44,0.00,,,0.00,WUHU216HW,2013-06-19 23:27:00,
2013-06-19 18:32:00,92.0,66.8,29.74,SSE,158,3.6,6.9,44,0.00,,,0.00,WUHU216HW,2013-06-19 23:32:00,
2013-06-19 18:37:00,92.0,67.4,29.74,SSE,158,2.5,4.0,45,0.00,,,0.00,WUHU216HW,2013-06-19 23:37:00,
2013-06-19 18:42:00,91.8,67.3,29.73,SSE,158,4.3,5.4,45,0.00,,,0.00,WUHU216HW,2013-06-19 23:42:00,
2013-06-19 18:47:00,91.8,67.3,29.74,WSW,248,2.5,5.4,45,0.00,,,0.00,WUHU216HW,2013-06-19 23:47:00,
2013-06-19 18:52:00,91.8,67.3,29.74,South,180,1.1,2.7,45,0.00,,,0.00,WUHU216HW,2013-06-19 23:52:00,
2013-06-19 18:57:00,91.6,67.2,29.74,SSE,158,1.8,3.8,45,0.00,,,0.00,WUHU216HW,2013-06-19 23:57:00,
2013-06-19 19:02:00,91.4,67.0,29.74,South,180,2.7,5.4,45,0.00,,,0.00,WUHU216HW,2013-06-20 00:02:00,
2013-06-19 19:07:00,91.3,66.8,29.74,SSE,158,2.5,5.4,45,0.00,,,0.00,WUHU216HW,2013-06-20 00:07:00,
2013-06-19 19:12:00,91.1,67.3,29.74,South,180,1.3,2.7,46,0.00,,,0.00,WUHU216HW,2013-06-20 00:12:00,
2013-06-19 19:17:00,91.1,67.3,29.74,South,180,2.2,2.7,46,0.00,,,0.00,WUHU216HW,2013-06-20 00:17:00,
2013-06-19 19:22:00,90.9,67.8,29.74,SSW,203,1.8,3.1,47,0.00,,,0.00,WUHU216HW,2013-06-20 00:22:00,
2013-06-19 19:27:00,90.7,67.0,29.74,South,180,2.5,3.6,46,0.00,,,0.00,WUHU216HW,2013-06-20 00:27:00,
2013-06-19 19:32:00,90.4,67.3,29.73,South,180,1.8,3.6,47,0.00,,,0.00,WUHU216HW,2013-06-20 00:32:00,
2013-06-19 19:37:00,90.0,67.0,29.73,SW,225,0.7,3.4,47,0.00,,,0.00,WUHU216HW,2013-06-20 00:37:00,
2013-06-19 19:42:00,89.8,66.8,29.74,South,180,1.3,2.2,47,0.00,,,0.00,WUHU216HW,2013-06-20 00:42:00,
2013-06-19 19:47:00,89.6,67.3,29.74,South,180,0.7,1.6,48,0.00,,,0.00,WUHU216HW,2013-06-20 00:47:00,
2013-06-19 19:52:00,89.3,68.2,29.74,South,180,1.1,1.1,50,0.00,,,0.00,WUHU216HW,2013-06-20 00:52:00,
2013-06-19 19:57:00,88.7,68.3,29.74,SSW,203,0.2,1.3,51,0.00,,,0.00,WUHU216HW,2013-06-20 00:57:00,
2013-06-19 20:02:00,88.6,69.2,29.74,SSW,203,0.9,1.3,53,0.00,,,0.00,WUHU216HW,2013-06-20 01:02:00,
2013-06-19 20:07:00,88.2,68.4,29.74,SSW,203,1.6,2.2,52,0.00,,,0.00,WUHU216HW,2013-06-20 01:07:00,
2013-06-19 20:12:00,88.0,68.2,29.75,SSW,203,0.0,2.2,52,0.00,,,0.00,WUHU216HW,2013-06-20 01:12:00,
2013-06-19 20:17:00,87.8,68.6,29.75,SSW,203,0.0,1.3,53,0.00,,,0.00,WUHU216HW,2013-06-20 01:17:00,
2013-06-19 20:22:00,87.5,68.8,29.75,SSW,203,0.7,0.9,54,0.00,,,0.00,WUHU216HW,2013-06-20 01:22:00,
2013-06-19 20:27:00,86.9,68.8,29.75,SSW,203,0.0,0.9,55,0.00,,,0.00,WUHU216HW,2013-06-20 01:27:00,
2013-06-19 20:32:00,86.4,68.3,29.75,SSW,203,0.0,0.4,55,0.00,,,0.00,WUHU216HW,2013-06-20 01:32:00,
2013-06-19 20:37:00,85.9,68.3,29.75,SSW,203,0.0,0.0,56,0.00,,,0.00,WUHU216HW,2013-06-20 01:37:00,
2013-06-19 20:42:00,85.3,68.3,29.76,SSW,203,0.7,0.7,57,0.00,,,0.00,WUHU216HW,2013-06-20 01:42:00,
2013-06-19 20:47:00,84.8,67.9,29.76,SSW,203,0.7,0.7,57,0.00,,,0.00,WUHU216HW,2013-06-20 01:47:00,
2013-06-19 20:52:00,84.2,67.9,29.76,SSW,203,0.0,0.7,58,0.00,,,0.00,WUHU216HW,2013-06-20 01:52:00,
2013-06-19 20:57:00,83.9,68.0,29.76,SSW,203,0.0,0.7,59,0.00,,,0.00,WUHU216HW,2013-06-20 01:57:00,
2013-06-19 21:02:00,83.3,67.5,29.76,SSW,203,0.0,0.0,59,0.00,,,0.00,WUHU216HW,2013-06-20 02:02:00,
2013-06-19 21:07:00,83.0,67.1,29.76,SSW,203,0.0,0.0,59,0.00,,,0.00,WUHU216HW,2013-06-20 02:07:00,
2013-06-19 21:12:00,82.4,67.1,29.76,SSW,203,0.0,0.0,60,0.00,,,0.00,WUHU216HW,2013-06-20 02:12:00,
2013-06-19 21:17:00,81.9,67.2,29.76,SSW,203,0.0,0.0,61,0.00,,,0.00,WUHU216HW,2013-06-20 02:17:00,
2013-06-19 21:22:00,81.5,67.2,29.76,SSW,203,0.0,0.0,62,0.00,,,0.00,WUHU216HW,2013-06-20 02:22:00,
2013-06-19 21:27:00,81.2,67.3,29.75,SSW,203,0.0,0.0,63,0.00,,,0.00,WUHU216HW,2013-06-20 02:27:00,
2013-06-19 21:32:00,80.8,67.5,29.76,SSW,203,0.0,0.0,64,0.00,,,0.00,WUHU216HW,2013-06-20 02:32:00,
2013-06-19 21:37:00,80.5,67.6,29.75,SSW,203,0.0,0.0,65,0.00,,,0.00,WUHU216HW,2013-06-20 02:37:00,
2013-06-19 21:42:00,80.1,66.8,29.75,South,180,1.8,1.8,64,0.00,,,0.00,WUHU216HW,2013-06-20 02:42:00,
2013-06-19 21:47:00,81.2,66.4,29.75,SSW,203,2.0,4.3,61,0.00,,,0.00,WUHU216HW,2013-06-20 02:47:00,
2013-06-19 21:52:00,82.1,66.3,29.75,SW,225,3.1,4.5,59,0.00,,,0.00,WUHU216HW,2013-06-20 02:52:00,
2013-06-19 21:57:00,82.4,66.6,29.75,South,180,0.7,4.5,59,0.00,,,0.00,WUHU216HW,2013-06-20 02:57:00,
2013-06-19 22:02:00,82.4,66.1,29.75,South,180,0.0,3.4,58,0.00,,,0.00,WUHU216HW,2013-06-20 03:02:00,
2013-06-19 22:07:00,82.3,66.0,29.75,East,90,1.8,1.8,58,0.00,,,0.00,WUHU216HW,2013-06-20 03:07:00,
2013-06-19 22:12:00,82.1,66.3,29.76,ENE,68,1.3,2.2,59,0.00,,,0.00,WUHU216HW,2013-06-20 03:12:00,
2013-06-19 22:17:00,81.7,66.0,29.76,ENE,68,0.7,2.2,59,0.00,,,0.00,WUHU216HW,2013-06-20 03:17:00,
2013-06-19 22:22:00,81.2,66.4,29.76,ENE,68,0.0,1.1,61,0.00,,,0.00,WUHU216HW,2013-06-20 03:22:00,
2013-06-19 22:27:00,80.5,66.2,29.76,SW,225,1.8,1.8,62,0.00,,,0.00,WUHU216HW,2013-06-20 03:27:00,
2013-06-19 22:32:00,79.9,65.8,29.76,South,180,2.7,3.4,62,0.00,,,0.00,WUHU216HW,2013-06-20 03:32:00,
2013-06-19 22:37:00,80.8,65.7,29.75,South,180,4.7,6.3,60,0.00,,,0.00,WUHU216HW,2013-06-20 03:37:00,
2013-06-19 22:42:00,81.9,66.2,29.75,SSE,158,3.4,6.9,59,0.00,,,0.00,WUHU216HW,2013-06-20 03:42:00,
2013-06-19 22:47:00,82.4,66.1,29.76,South,180,4.5,6.9,58,0.00,,,0.00,WUHU216HW,2013-06-20 03:47:00,
2013-06-19 22:52:00,82.6,65.8,29.76,SSE,158,5.8,6.3,57,0.00,,,0.00,WUHU216HW,2013-06-20 03:52:00,
2013-06-19 22:57:00,82.6,66.2,29.76,SSW,203,4.0,6.3,58,0.00,,,0.00,WUHU216HW,2013-06-20 03:57:00,
2013-06-19 23:01:00,82.8,66.4,29.76,SW,225,1.1,5.8,58,0.00,,,0.00,WUHU216HW,2013-06-20 04:01:00,
2013-06-19 23:06:00,82.8,66.4,29.77,ESE,113,3.6,7.6,58,0.00,,,0.00,WUHU216HW,2013-06-20 04:06:00,
2013-06-19 23:11:00,82.6,66.8,29.78,SSE,158,1.6,8.1,59,0.00,,,0.00,WUHU216HW,2013-06-20 04:11:00,
2013-06-19 23:16:00,82.4,66.6,29.79,SSE,158,4.0,8.1,59,0.00,,,0.00,WUHU216HW,2013-06-20 04:16:00,
2013-06-19 23:21:00,82.4,67.6,29.79,South,180,4.7,4.9,61,0.00,,,0.00,WUHU216HW,2013-06-20 04:21:00,
2013-06-19 23:26:00,82.4,67.6,29.79,South,180,7.2,7.2,61,0.00,,,0.00,WUHU216HW,2013-06-20 04:26:00,
2013-06-19 23:31:00,82.4,67.6,29.79,SW,225,2.2,7.2,61,0.00,,,0.00,WUHU216HW,2013-06-20 04:31:00,
2013-06-19 23:36:00,82.1,67.7,29.79,SSE,158,4.0,5.4,62,0.00,,,0.00,WUHU216HW,2013-06-20 04:36:00,
2013-06-19 23:41:00,82.1,67.7,29.79,SSW,203,3.6,7.2,62,0.00,,,0.00,WUHU216HW,2013-06-20 04:41:00,
2013-06-19 23:46:00,81.9,68.1,29.79,SSW,203,4.5,7.2,63,0.00,,,0.00,WUHU216HW,2013-06-20 04:46:00,
2013-06-19 23:51:00,81.7,67.9,29.79,SSW,203,4.5,9.2,63,0.00,,,0.00,WUHU216HW,2013-06-20 04:51:00,
2013-06-19 23:56:00,81.7,67.9,29.79,SSW,203,9.4,9.4,63,0.00,,,0.00,WUHU216HW,2013-06-20 04:56:00,